createdAt,value
2022-11-15T08:27:37.754Z,6.80
2022-11-15T08:33:18.064Z,7.50
2022-11-15T08:38:39.245Z,7.90
2022-11-15T08:44:00.487Z,8.50
2022-11-15T08:49:21.956Z,9.00
2022-11-15T08:54:43.181Z,9.30
2022-11-15T09:00:06.348Z,9.70
2022-11-15T09:05:28.464Z,10.10
2022-11-15T09:10:49.606Z,10.40
2022-11-15T09:16:12.999Z,10.80
2022-11-15T09:21:34.361Z,11.00
2022-11-15T09:26:55.397Z,11.30
2022-11-15T09:32:16.501Z,11.60
2022-11-15T09:37:37.716Z,11.90
2022-11-15T09:43:14.170Z,12.20
2022-11-15T09:48:47.391Z,12.50
2022-11-15T09:59:43.607Z,13.10
2022-11-15T10:04:46.776Z,13.40
2022-11-15T10:10:03.000Z,13.60
2022-11-15T10:15:12.814Z,13.90
2022-11-15T10:20:25.092Z,14.10
2022-11-15T10:25:30.689Z,14.40
2022-11-15T10:30:40.648Z,14.60
2022-11-15T10:35:43.818Z,14.80
2022-11-15T10:40:46.626Z,14.90
2022-11-15T10:45:51.029Z,15.10
2022-11-15T10:50:56.111Z,15.30
2022-11-15T10:56:06.269Z,15.40
2022-11-15T11:01:18.039Z,15.60
2022-11-15T11:06:23.644Z,15.80
2022-11-15T11:11:46.131Z,16.00
2022-11-15T11:17:16.883Z,16.30
2022-11-15T11:22:43.767Z,16.40
2022-11-15T11:28:20.530Z,16.60
2022-11-15T11:33:37.535Z,16.80
2022-11-15T11:38:55.960Z,16.90
2022-11-15T11:44:25.531Z,17.00
2022-11-15T11:49:33.492Z,17.10
2022-11-15T11:55:01.374Z,17.20
2022-11-15T12:00:21.104Z,17.20
2022-11-15T12:05:40.533Z,17.20
2022-11-15T12:10:49.634Z,17.30
2022-11-15T12:16:14.738Z,17.40
2022-11-15T12:21:42.133Z,17.40
2022-11-15T12:26:54.912Z,17.50
2022-11-15T12:32:01.071Z,17.50
2022-11-15T12:37:24.051Z,17.70
2022-11-15T12:42:40.251Z,17.50
2022-11-15T12:47:43.094Z,17.40
2022-11-15T12:53:23.375Z,17.50
2022-11-15T12:58:42.010Z,17.50
2022-11-15T13:04:20.169Z,17.50
2022-11-15T13:09:35.024Z,17.40
2022-11-15T13:14:48.432Z,17.50
2022-11-15T13:20:01.418Z,17.40
2022-11-15T13:25:05.173Z,17.40
2022-11-15T13:30:15.412Z,17.30
2022-11-15T13:35:24.800Z,17.30
2022-11-15T13:40:31.572Z,17.40
2022-11-15T13:45:34.362Z,17.30
2022-11-15T13:50:40.437Z,17.40
2022-11-15T13:55:43.541Z,17.40
2022-11-15T14:00:48.361Z,17.30
2022-11-15T14:06:14.202Z,17.40
2022-11-15T14:11:21.471Z,17.30
2022-11-15T14:16:38.015Z,17.20
2022-11-15T14:22:17.804Z,17.00
2022-11-15T14:27:27.173Z,16.70
2022-11-15T14:32:45.180Z,16.30
2022-11-15T14:37:48.573Z,16.00
2022-11-15T14:42:52.056Z,15.60
2022-11-15T14:47:54.915Z,15.20
2022-11-15T14:52:57.705Z,14.90
2022-11-15T14:58:00.943Z,14.50
2022-11-15T15:03:04.670Z,14.20
2022-11-15T15:08:07.843Z,13.90
2022-11-15T15:13:21.248Z,13.50
2022-11-15T15:18:24.072Z,13.20
2022-11-15T15:23:30.323Z,12.90
2022-11-15T15:28:34.841Z,12.60
2022-11-15T15:33:38.315Z,12.30
2022-11-15T15:38:42.469Z,12.00
2022-11-15T15:43:45.389Z,11.70
2022-11-15T15:48:48.469Z,11.40
2022-11-15T15:53:52.656Z,11.20
2022-11-15T15:58:56.591Z,10.90
2022-11-15T16:03:59.376Z,10.60
2022-11-15T16:09:15.118Z,10.40
2022-11-15T16:14:18.334Z,10.20
2022-11-15T16:19:21.138Z,10.10
2022-11-15T16:24:24.079Z,9.90
2022-11-15T16:29:27.098Z,9.60
2022-11-15T16:34:33.839Z,9.50
2022-11-15T16:39:38.842Z,9.30
2022-11-15T16:44:41.655Z,9.20
2022-11-15T16:49:45.485Z,9.00
2022-11-15T16:54:48.306Z,8.90
2022-11-15T16:59:51.075Z,8.70
2022-11-15T17:04:53.858Z,8.40
2022-11-15T17:09:56.619Z,8.20
2022-11-15T17:14:59.453Z,8.10
2022-11-15T17:20:05.158Z,7.90
2022-11-15T17:25:08.088Z,7.80
2022-11-15T17:30:13.071Z,7.70
2022-11-15T17:35:16.130Z,7.60
2022-11-15T17:40:19.057Z,7.40
2022-11-15T17:45:21.973Z,7.30
2022-11-15T17:50:24.728Z,7.20
2022-11-15T17:55:27.519Z,7.10
2022-11-15T18:00:30.315Z,6.90
2022-11-15T18:05:33.116Z,6.80
2022-11-15T18:10:35.888Z,6.70
2022-11-15T18:15:38.768Z,6.60
2022-11-15T18:20:41.530Z,6.50
2022-11-15T18:25:51.185Z,6.30
2022-11-15T18:30:53.958Z,6.30
2022-11-15T18:36:05.466Z,6.30
2022-11-15T18:41:11.334Z,6.20
2022-11-15T18:46:16.728Z,6.10
2022-11-15T18:51:27.449Z,6.00
2022-11-15T18:56:32.484Z,5.90
2022-11-15T19:01:37.671Z,5.80
2022-11-15T19:06:42.468Z,5.60
2022-11-15T19:11:47.158Z,5.60
2022-11-15T19:16:52.164Z,5.50
2022-11-15T19:21:58.075Z,5.40
2022-11-15T19:27:00.941Z,5.30
2022-11-15T19:32:05.378Z,5.20
2022-11-15T19:37:08.180Z,5.10
2022-11-15T19:42:11.165Z,5.00
2022-11-15T19:47:13.987Z,4.90
2022-11-15T19:52:16.704Z,4.80
2022-11-15T19:57:19.483Z,4.70
2022-11-15T20:02:22.201Z,4.70
2022-11-15T20:07:25.053Z,4.60
2022-11-15T20:12:27.854Z,4.60
2022-11-15T20:17:30.570Z,4.50
2022-11-15T20:22:36.334Z,4.50
2022-11-15T20:27:39.044Z,4.50
2022-11-15T20:32:41.920Z,4.50
2022-11-15T20:37:45.579Z,4.70
2022-11-15T20:42:48.332Z,4.80
2022-11-15T20:47:51.055Z,5.00
2022-11-15T20:52:55.449Z,5.20
2022-11-15T20:57:58.231Z,5.60
2022-11-15T21:03:00.944Z,5.70
2022-11-15T21:08:03.763Z,5.80
2022-11-15T21:13:06.476Z,5.90
2022-11-15T21:18:09.361Z,5.90
2022-11-15T21:23:12.695Z,5.90
2022-11-15T21:28:15.406Z,5.70
2022-11-15T21:33:18.602Z,5.70
2022-11-15T21:38:23.787Z,5.60
2022-11-15T21:43:26.619Z,5.40
2022-11-15T21:48:31.930Z,5.30
2022-11-15T21:53:35.595Z,5.30
2022-11-15T21:58:39.660Z,5.20
2022-11-15T22:03:43.134Z,5.30
2022-11-15T22:08:46.831Z,5.20
2022-11-15T22:13:49.626Z,5.20
2022-11-15T22:18:52.451Z,5.20
2022-11-15T22:23:55.247Z,5.10
2022-11-15T22:28:58.047Z,5.10
2022-11-15T22:34:00.870Z,5.10
2022-11-15T22:39:03.686Z,5.20
2022-11-15T22:44:06.673Z,5.30
2022-11-15T22:49:09.607Z,5.40
2022-11-15T22:54:12.418Z,5.50
2022-11-15T22:59:15.245Z,5.60
2022-11-15T23:04:18.068Z,5.60
2022-11-15T23:09:20.841Z,5.50
